createdAt,value
2023-02-17T00:02:15.843Z,101359.13
2023-02-17T00:05:17.372Z,101362.59
2023-02-17T00:08:19.611Z,101359.03
2023-02-17T00:11:21.285Z,101360.81
2023-02-17T00:14:22.795Z,101359.91
2023-02-17T00:17:24.901Z,101357.25
2023-02-17T00:20:29.750Z,101358.91
2023-02-17T00:23:31.307Z,101359.75
2023-02-17T00:26:32.823Z,101349.97
2023-02-17T00:29:34.418Z,101340.25
2023-02-17T00:32:36.872Z,101329.63
2023-02-17T00:35:41.691Z,101329.56
2023-02-17T00:38:43.619Z,101319.81
2023-02-17T00:41:45.145Z,101322.41
2023-02-17T00:44:46.713Z,101319.66
2023-02-17T00:47:48.292Z,101322.25
2023-02-17T00:50:49.870Z,101325.75
2023-02-17T00:53:52.124Z,101323.91
2023-02-17T00:56:53.722Z,101316.78
2023-02-17T00:59:55.262Z,101311.56
2023-02-17T01:02:56.854Z,101319.44
2023-02-17T01:05:58.829Z,101314.06
2023-02-17T01:09:01.282Z,101324.59
2023-02-17T01:12:02.867Z,101308.69
2023-02-17T01:15:05.114Z,101305.09
2023-02-17T01:18:07.196Z,101297.91
2023-02-17T01:21:19.446Z,101304.00
2023-02-17T01:24:21.001Z,101304.00
2023-02-17T01:27:22.592Z,101303.09
2023-02-17T01:30:24.270Z,101310.09
2023-02-17T01:33:25.843Z,101303.84
2023-02-17T01:36:28.098Z,101290.59
2023-02-17T01:39:29.719Z,101295.81
2023-02-17T01:42:31.402Z,101285.19
2023-02-17T01:45:36.763Z,101290.50
2023-02-17T01:48:44.208Z,101286.97
2023-02-17T01:51:50.039Z,101285.97
2023-02-17T01:55:05.649Z,101270.91
2023-02-17T01:58:09.093Z,101278.81
2023-02-17T02:01:10.946Z,101263.72
2023-02-17T02:04:15.081Z,101260.16
2023-02-17T02:07:22.985Z,101250.41
2023-02-17T02:10:24.596Z,101249.44
2023-02-17T02:13:26.149Z,101247.66
2023-02-17T02:16:42.548Z,101245.78
2023-02-17T02:19:59.534Z,101239.63
2023-02-17T02:23:25.230Z,101233.47
2023-02-17T02:26:51.170Z,101236.13
2023-02-17T02:30:02.877Z,101231.69
2023-02-17T02:33:07.559Z,101226.38
2023-02-17T02:36:42.042Z,101214.81
2023-02-17T02:39:49.301Z,101212.16
2023-02-17T02:42:51.082Z,101204.19
2023-02-17T02:45:52.659Z,101204.19
2023-02-17T02:48:54.407Z,101190.88
2023-02-17T02:52:15.142Z,101189.03
2023-02-17T02:55:42.632Z,101183.69
2023-02-17T02:58:47.163Z,101178.38
2023-02-17T03:02:06.300Z,101184.53
2023-02-17T03:05:24.515Z,101175.72
2023-02-17T03:08:39.661Z,101168.63
2023-02-17T03:11:42.147Z,101165.97
2023-02-17T03:14:44.195Z,101157.91
2023-02-17T03:17:45.746Z,101166.72
2023-02-17T03:21:01.690Z,101163.97
2023-02-17T03:24:03.768Z,101151.56
2023-02-17T03:27:05.405Z,101148.94
2023-02-17T03:30:08.125Z,101151.50
2023-02-17T03:33:09.723Z,101141.72
2023-02-17T03:36:11.299Z,101142.59
2023-02-17T03:39:12.860Z,101140.72
2023-02-17T03:42:14.459Z,101140.72
2023-02-17T03:45:16.187Z,101127.44
2023-02-17T03:48:17.771Z,101135.41
2023-02-17T03:51:24.629Z,101137.13
2023-02-17T03:54:27.233Z,101128.22
2023-02-17T03:57:28.924Z,101125.56
2023-02-17T04:00:30.557Z,101125.56
2023-02-17T04:03:32.651Z,101118.47
2023-02-17T04:06:34.283Z,101108.72
2023-02-17T04:09:35.869Z,101115.75
2023-02-17T04:12:37.487Z,101109.47
2023-02-17T04:15:39.031Z,101112.13
2023-02-17T04:18:40.634Z,101108.63
2023-02-17T04:21:42.195Z,101094.41
2023-02-17T04:24:43.755Z,101082.88
2023-02-17T04:27:45.311Z,101087.31
2023-02-17T04:30:48.463Z,101096.16
2023-02-17T04:33:50.045Z,101089.88
2023-02-17T04:36:51.634Z,101086.28
2023-02-17T04:39:53.200Z,101079.16
2023-02-17T04:42:54.801Z,101080.88
2023-02-17T04:45:57.424Z,101078.13
2023-02-17T04:48:58.994Z,101069.25
2023-02-17T04:52:00.607Z,101065.56
2023-02-17T04:55:02.144Z,101058.53
2023-02-17T04:58:04.266Z,101063.84
2023-02-17T05:01:05.905Z,101062.91
2023-02-17T05:04:07.482Z,101061.97
2023-02-17T05:07:09.076Z,101061.97
2023-02-17T05:10:11.311Z,101061.03
2023-02-17T05:13:12.876Z,101058.38
2023-02-17T05:16:14.606Z,101052.13
2023-02-17T05:19:16.231Z,101042.44
2023-02-17T05:22:17.810Z,101040.66
2023-02-17T05:25:19.461Z,101045.97
2023-02-17T05:28:21.015Z,101047.69
2023-02-17T05:31:22.681Z,101047.59
2023-02-17T05:34:24.258Z,101041.41
2023-02-17T05:37:26.898Z,101035.25
2023-02-17T05:40:28.607Z,101031.66
2023-02-17T05:43:30.495Z,101020.09
2023-02-17T05:46:32.223Z,101018.38
2023-02-17T05:49:33.942Z,101022.81
2023-02-17T05:52:35.672Z,101011.28
2023-02-17T05:55:37.269Z,101007.75
2023-02-17T05:58:38.806Z,101016.59
2023-02-17T06:01:40.432Z,100998.88
2023-02-17T06:04:42.042Z,101003.31
2023-02-17T06:07:43.626Z,101001.53
2023-02-17T06:10:45.292Z,100998.78
2023-02-17T06:13:46.863Z,100978.41
2023-02-17T06:16:48.410Z,100982.84
2023-02-17T06:19:50.125Z,100972.22
2023-02-17T06:22:51.664Z,100964.34
2023-02-17T06:25:53.391Z,100969.66
2023-02-17T06:28:55.090Z,100971.34
2023-02-17T06:31:56.921Z,100968.44
2023-02-17T06:34:58.454Z,100979.00
2023-02-17T06:38:00.075Z,100973.75
2023-02-17T06:41:01.665Z,100950.81
2023-02-17T06:44:03.403Z,100963.31
2023-02-17T06:47:05.064Z,100959.88
2023-02-17T06:50:07.687Z,100957.31
2023-02-17T06:53:09.252Z,100959.22
2023-02-17T06:56:10.945Z,100960.25
2023-02-17T06:59:12.485Z,100963.81
2023-02-17T07:02:14.872Z,100962.13
2023-02-17T07:05:16.686Z,100952.44
2023-02-17T07:08:18.294Z,100959.53
2023-02-17T07:11:20.249Z,100966.75
2023-02-17T07:14:23.452Z,100957.91
2023-02-17T07:17:26.623Z,100975.63
2023-02-17T07:20:28.202Z,100959.72
2023-02-17T07:23:29.884Z,100951.75
2023-02-17T07:26:31.466Z,100965.97
2023-02-17T07:29:33.021Z,100958.94
2023-02-17T07:32:35.602Z,100944.84
2023-02-17T07:35:46.428Z,100951.94
2023-02-17T07:38:48.173Z,100942.25
2023-02-17T07:41:49.748Z,100935.16
2023-02-17T07:44:51.525Z,100936.09
2023-02-17T07:47:53.254Z,100924.66
2023-02-17T07:50:55.059Z,100922.91
2023-02-17T07:53:56.555Z,100904.34
2023-02-17T07:56:58.082Z,100892.88
2023-02-17T07:59:59.606Z,100885.78
2023-02-17T08:03:01.177Z,100904.34
2023-02-17T08:06:03.090Z,100907.94
2023-02-17T08:09:23.343Z,100902.72
2023-02-17T08:12:43.277Z,100913.34
2023-02-17T08:15:44.866Z,100894.75
2023-02-17T08:18:46.420Z,100882.34
2023-02-17T08:21:48.574Z,100877.03
2023-02-17T08:24:50.849Z,100885.00
2023-02-17T08:27:52.492Z,100870.88
2023-02-17T08:30:54.133Z,100859.34
2023-02-17T08:33:56.686Z,100872.59
2023-02-17T08:36:58.224Z,100870.78
2023-02-17T08:39:59.903Z,100866.31
2023-02-17T08:43:03.514Z,100872.50
2023-02-17T08:46:08.686Z,100878.41
2023-02-17T08:49:10.964Z,100880.78
2023-02-17T08:52:12.612Z,100852.28
2023-02-17T08:55:15.195Z,100859.38
2023-02-17T08:58:17.064Z,100861.00
2023-02-17T09:01:19.715Z,100853.88
2023-02-17T09:04:21.629Z,100849.41
2023-02-17T09:07:23.287Z,100847.63
2023-02-17T09:10:25.302Z,100865.28
2023-02-17T09:13:27.395Z,100853.63
2023-02-17T09:16:29.050Z,100865.09
2023-02-17T09:19:30.710Z,100845.47
2023-02-17T09:22:32.641Z,100848.91
2023-02-17T09:25:34.678Z,100842.63
2023-02-17T09:28:36.554Z,100838.09
2023-02-17T09:31:38.414Z,100840.66
2023-02-17T09:34:40.507Z,100845.78
2023-02-17T09:37:42.103Z,100851.00
2023-02-17T09:40:49.856Z,100837.63
2023-02-17T09:43:52.368Z,100816.28
2023-02-17T09:47:10.215Z,100812.66
2023-02-17T09:50:40.416Z,100821.50
2023-02-17T09:54:16.039Z,100815.25
2023-02-17T09:57:24.476Z,100822.25
2023-02-17T10:00:30.902Z,100827.50
2023-02-17T10:03:44.834Z,100832.63
2023-02-17T10:06:59.342Z,100840.50
2023-02-17T10:10:36.257Z,100827.91
2023-02-17T10:13:41.050Z,100820.69
2023-02-17T10:16:57.365Z,100841.75
2023-02-17T10:20:09.185Z,100876.88
2023-02-17T10:23:16.635Z,100869.66
2023-02-17T10:26:51.203Z,100867.75
2023-02-17T10:30:02.308Z,100872.88
2023-02-17T10:33:18.420Z,100871.84
2023-02-17T10:36:35.077Z,100871.84
2023-02-17T10:39:42.301Z,100887.56
2023-02-17T10:42:44.012Z,100875.91
2023-02-17T10:45:49.891Z,100879.34
2023-02-17T10:48:53.244Z,100876.50
2023-02-17T10:51:54.855Z,100871.97
2023-02-17T10:55:22.773Z,100867.44
2023-02-17T10:58:45.589Z,100862.88
2023-02-17T11:01:48.752Z,100865.34
2023-02-17T11:04:54.956Z,100850.16
2023-02-17T11:08:07.242Z,100847.31
2023-02-17T11:11:21.319Z,100848.06
2023-02-17T11:14:29.159Z,100848.81
2023-02-17T11:17:41.095Z,100835.47
2023-02-17T11:20:42.707Z,100836.22
2023-02-17T11:23:59.072Z,100832.50
2023-02-17T11:27:05.255Z,100838.56
2023-02-17T11:30:18.736Z,100826.03
2023-02-17T11:33:40.481Z,100833.06
2023-02-17T11:36:45.624Z,100819.66
2023-02-17T11:39:50.966Z,100816.91
2023-02-17T11:42:59.736Z,100838.16
2023-02-17T11:46:07.682Z,100828.31
2023-02-17T11:49:36.787Z,100834.38
2023-02-17T11:52:49.316Z,100842.38
2023-02-17T11:56:00.312Z,100813.97
2023-02-17T11:59:04.602Z,100822.78
2023-02-17T12:02:17.199Z,100828.03
2023-02-17T12:05:36.941Z,100830.69
2023-02-17T12:08:50.185Z,100813.00
2023-02-17T12:11:59.258Z,100803.22
2023-02-17T12:15:15.930Z,100799.81
2023-02-17T12:18:29.652Z,100790.13
2023-02-17T12:21:43.200Z,100832.66
2023-02-17T12:25:09.075Z,100829.06
2023-02-17T12:28:35.873Z,100808.75
2023-02-17T12:31:55.490Z,100812.38
2023-02-17T12:35:01.438Z,100823.94
2023-02-17T12:38:17.089Z,100827.34
2023-02-17T12:41:38.879Z,100836.06
2023-02-17T12:44:51.684Z,100829.81
2023-02-17T12:48:10.113Z,100827.91
2023-02-17T12:51:19.731Z,100837.63
2023-02-17T12:54:30.399Z,100849.94
2023-02-17T12:57:55.722Z,100840.84
2023-02-17T13:01:09.549Z,100820.41
2023-02-17T13:04:18.065Z,100850.31
2023-02-17T13:07:41.566Z,100843.09
2023-02-17T13:10:43.342Z,100834.06
2023-02-17T13:13:44.954Z,100824.16
2023-02-17T13:16:46.675Z,100838.88
2023-02-17T13:19:48.257Z,100829.56
2023-02-17T13:22:49.930Z,100846.06
2023-02-17T13:26:04.542Z,100844.84
2023-02-17T13:29:24.261Z,100823.16
2023-02-17T13:32:31.975Z,100858.88
2023-02-17T13:35:36.583Z,100850.66
2023-02-17T13:38:38.138Z,100855.16
2023-02-17T13:41:48.210Z,100850.66
2023-02-17T13:44:51.322Z,100854.19
2023-02-17T13:47:58.377Z,100851.44
2023-02-17T13:51:02.389Z,100847.91
2023-02-17T13:54:08.626Z,100834.41
2023-02-17T13:57:23.167Z,100846.66
2023-02-17T14:00:28.875Z,100832.19
2023-02-17T14:03:39.612Z,100832.75
2023-02-17T14:06:41.250Z,100828.16
2023-02-17T14:09:43.348Z,100834.22
2023-02-17T14:12:45.352Z,100844.81
2023-02-17T14:15:54.641Z,100837.56
2023-02-17T14:19:08.770Z,100842.88
2023-02-17T14:22:30.781Z,100845.44
2023-02-17T14:25:35.985Z,100848.00
2023-02-17T14:28:37.613Z,100876.31
2023-02-17T14:31:42.088Z,100876.28
2023-02-17T14:34:43.696Z,100885.09
2023-02-17T14:37:45.281Z,100887.69
2023-02-17T14:40:47.341Z,100891.94
2023-02-17T14:43:49.015Z,100904.28
2023-02-17T14:46:50.664Z,100901.63
2023-02-17T14:49:52.942Z,100911.34
2023-02-17T14:52:55.730Z,100921.97
2023-02-17T14:56:02.721Z,100944.34
2023-02-17T14:59:04.817Z,100939.22
2023-02-17T15:02:14.858Z,100978.47
2023-02-17T15:05:16.432Z,100972.59
2023-02-17T15:08:28.135Z,100983.44
2023-02-17T15:11:37.067Z,100994.28
2023-02-17T15:14:38.630Z,101027.38
2023-02-17T15:17:40.193Z,101005.72
2023-02-17T15:20:44.035Z,101015.97
2023-02-17T15:23:45.578Z,101017.31
2023-02-17T15:26:48.116Z,101013.34
2023-02-17T15:29:49.711Z,101015.53
2023-02-17T15:32:51.290Z,101042.38
2023-02-17T15:35:54.513Z,101031.16
2023-02-17T15:38:56.118Z,101039.44
2023-02-17T15:42:03.153Z,101030.00
2023-02-17T15:45:04.951Z,101036.47
2023-02-17T15:48:32.833Z,101065.25
2023-02-17T15:51:34.374Z,101067.50
2023-02-17T15:54:35.927Z,101069.75
2023-02-17T15:57:39.967Z,101088.75
2023-02-17T16:00:41.655Z,101095.28
2023-02-17T16:03:43.338Z,101093.91
2023-02-17T16:06:44.983Z,101108.47
2023-02-17T16:09:46.533Z,101113.28
2023-02-17T16:12:50.463Z,101114.47
2023-02-17T16:15:54.026Z,101121.06
2023-02-17T16:18:55.562Z,101149.69
2023-02-17T16:21:57.420Z,101151.84
2023-02-17T16:24:58.970Z,101140.72
2023-02-17T16:28:00.796Z,101174.72
2023-02-17T16:31:02.363Z,101176.75
2023-02-17T16:34:03.923Z,101186.88
2023-02-17T16:37:12.939Z,101193.44
2023-02-17T16:40:16.582Z,101172.63
2023-02-17T16:43:30.480Z,101191.75
2023-02-17T16:46:35.977Z,101181.56
2023-02-17T16:49:39.877Z,101183.69
2023-02-17T16:52:41.444Z,101194.88
2023-02-17T16:55:44.094Z,101207.63
2023-02-17T16:58:45.791Z,101209.72
2023-02-17T17:01:48.102Z,101218.94
2023-02-17T17:04:49.827Z,101227.22
2023-02-17T17:07:51.593Z,101230.09
2023-02-17T17:10:53.129Z,101249.84
2023-02-17T17:13:55.304Z,101259.91
2023-02-17T17:17:00.802Z,101271.69
2023-02-17T17:20:02.339Z,101265.75
2023-02-17T17:23:10.075Z,101281.97
2023-02-17T17:26:18.906Z,101297.22
2023-02-17T17:29:20.594Z,101287.78
2023-02-17T17:32:22.256Z,101300.38
2023-02-17T17:35:24.474Z,101302.34
2023-02-17T17:38:26.031Z,101299.84
2023-02-17T17:41:29.401Z,101307.06
2023-02-17T17:44:30.949Z,101301.97
2023-02-17T17:47:32.495Z,101313.72
2023-02-17T17:50:34.082Z,101326.28
2023-02-17T17:53:35.705Z,101322.91
2023-02-17T17:56:42.528Z,101326.66
2023-02-17T17:59:44.057Z,101322.34
2023-02-17T18:02:45.668Z,101331.34
2023-02-17T18:05:47.906Z,101338.59
2023-02-17T18:08:51.076Z,101344.91
2023-02-17T18:11:54.219Z,101344.25
2023-02-17T18:14:56.072Z,101356.72
2023-02-17T18:17:57.707Z,101355.09
2023-02-17T18:20:59.271Z,101367.56
2023-02-17T18:24:00.816Z,101355.41
2023-02-17T18:27:02.415Z,101359.97
2023-02-17T18:30:04.262Z,101363.69
2023-02-17T18:33:05.935Z,101365.56
2023-02-17T18:36:16.822Z,101369.25
2023-02-17T18:39:18.486Z,101367.59
2023-02-17T18:42:20.049Z,101387.06
2023-02-17T18:45:22.409Z,101394.28
2023-02-17T18:48:23.983Z,101403.22
2023-02-17T18:51:27.671Z,101389.19
2023-02-17T18:54:29.347Z,101397.25
2023-02-17T18:57:32.380Z,101393.69
2023-02-17T19:00:34.168Z,101402.56
2023-02-17T19:03:35.738Z,101396.34
2023-02-17T19:06:37.434Z,101412.94
2023-02-17T19:09:44.394Z,101410.25
2023-02-17T19:12:45.985Z,101421.63
2023-02-17T19:15:47.570Z,101431.28
2023-02-17T19:18:49.226Z,101429.44
2023-02-17T19:21:50.827Z,101437.44
2023-02-17T19:24:54.054Z,101436.44
2023-02-17T19:27:55.619Z,101448.81
2023-02-17T19:30:58.020Z,101455.06
2023-02-17T19:33:59.576Z,101452.34
2023-02-17T19:37:01.316Z,101463.13
2023-02-17T19:40:03.382Z,101464.69
2023-02-17T19:43:04.919Z,101484.38
2023-02-17T19:46:07.618Z,101483.94
2023-02-17T19:49:09.326Z,101492.16
2023-02-17T19:52:11.098Z,101487.25
2023-02-17T19:55:12.618Z,101489.31
2023-02-17T19:58:14.208Z,101490.44
2023-02-17T20:01:19.584Z,101493.34
2023-02-17T20:04:21.210Z,101502.41
2023-02-17T20:07:23.075Z,101501.75
2023-02-17T20:10:24.783Z,101500.09
2023-02-17T20:13:28.648Z,101499.41
2023-02-17T20:16:32.375Z,101500.41
2023-02-17T20:19:38.491Z,101497.00
2023-02-17T20:22:40.703Z,101506.88
2023-02-17T20:25:42.231Z,101505.16
2023-02-17T20:28:44.716Z,101500.84
2023-02-17T20:31:46.495Z,101506.31
2023-02-17T20:34:48.109Z,101501.09
2023-02-17T20:37:49.703Z,101510.88
2023-02-17T20:40:51.314Z,101507.44
2023-02-17T20:43:53.027Z,101519.94
2023-02-17T20:46:55.287Z,101520.94
2023-02-17T20:49:56.917Z,101522.75
2023-02-17T20:52:58.617Z,101530.75
2023-02-17T20:56:00.179Z,101542.25
2023-02-17T20:59:02.378Z,101545.84
2023-02-17T21:02:03.926Z,101523.88
2023-02-17T21:05:05.698Z,101539.88
2023-02-17T21:08:07.467Z,101527.63
2023-02-17T21:11:09.008Z,101547.13
2023-02-17T21:14:11.062Z,101544.50
2023-02-17T21:17:12.670Z,101535.75
2023-02-17T21:20:17.978Z,101541.09
2023-02-17T21:23:21.145Z,101546.38
2023-02-17T21:26:22.767Z,101548.19
2023-02-17T21:29:24.317Z,101546.53
2023-02-17T21:32:26.484Z,101541.28
2023-02-17T21:35:28.019Z,101544.00
2023-02-17T21:38:29.554Z,101544.00
2023-02-17T21:41:32.564Z,101546.66
2023-02-17T21:44:52.326Z,101546.81
2023-02-17T21:47:53.901Z,101542.50
2023-02-17T21:51:04.445Z,101544.22
2023-02-17T21:54:07.690Z,101542.50
2023-02-17T21:57:09.278Z,101546.09
2023-02-17T22:00:11.915Z,101542.63
2023-02-17T22:03:13.747Z,101548.84
2023-02-17T22:06:18.724Z,101556.72
2023-02-17T22:09:20.318Z,101556.72
2023-02-17T22:12:21.878Z,101562.09
2023-02-17T22:15:23.416Z,101558.56
2023-02-17T22:18:24.958Z,101555.91
2023-02-17T22:21:26.989Z,101553.34
2023-02-17T22:24:28.589Z,101556.00
2023-02-17T22:27:30.271Z,101563.16
2023-02-17T22:30:31.879Z,101559.72
2023-02-17T22:33:34.191Z,101558.97
2023-02-17T22:36:36.828Z,101546.69
2023-02-17T22:39:38.370Z,101560.81
2023-02-17T22:42:39.870Z,101571.50
2023-02-17T22:45:41.594Z,101564.59
2023-02-17T22:48:44.937Z,101567.66
2023-02-17T22:51:46.702Z,101583.34
2023-02-17T22:54:48.480Z,101574.63
2023-02-17T22:57:51.863Z,101584.50
2023-02-17T23:01:17.689Z,101580.38
2023-02-17T23:04:19.299Z,101574.41
2023-02-17T23:07:20.914Z,101572.03
2023-02-17T23:10:22.548Z,101579.28
2023-02-17T23:13:24.306Z,101575.97
2023-02-17T23:16:26.097Z,101577.47
2023-02-17T23:19:29.244Z,101577.50
2023-02-17T23:22:30.849Z,101565.22
2023-02-17T23:25:32.708Z,101568.88
2023-02-17T23:28:34.306Z,101581.47
2023-02-17T23:31:38.253Z,101578.13
2023-02-17T23:34:40.323Z,101586.16
2023-02-17T23:37:42.671Z,101579.25
2023-02-17T23:40:49.070Z,101584.72
2023-02-17T23:43:50.672Z,101587.56
2023-02-17T23:46:52.241Z,101587.63
2023-02-17T23:49:53.766Z,101582.44
2023-02-17T23:52:55.349Z,101589.56
2023-02-17T23:56:06.055Z,101590.47
2023-02-17T23:59:07.766Z,101589.75
